sensor_id;sensor_type;location;lat;lon;timestamp;P1;durP1;ratioP1;P2;durP2;ratioP2
11171;SDS011;5642;50.830;12.082;2022-08-02T00:00:20;1.00;;;1.00;;
11171;SDS011;5642;50.830;12.082;2022-08-02T00:02:47;0.80;;;0.80;;
11171;SDS011;5642;50.830;12.082;2022-08-02T00:05:14;0.95;;;0.95;;
11171;SDS011;5642;50.830;12.082;2022-08-02T00:07:41;0.90;;;0.90;;
11171;SDS011;5642;50.830;12.082;2022-08-02T00:10:08;1.10;;;1.00;;
11171;SDS011;5642;50.830;12.082;2022-08-02T00:12:37;1.00;;;0.80;;
11171;SDS011;5642;50.830;12.082;2022-08-02T00:15:07;0.85;;;0.85;;
11171;SDS011;5642;50.830;12.082;2022-08-02T00:17:35;0.88;;;0.88;;
11171;SDS011;5642;50.830;12.082;2022-08-02T00:20:02;0.90;;;0.90;;
11171;SDS011;5642;50.830;12.082;2022-08-02T00:22:29;0.90;;;0.90;;
11171;SDS011;5642;50.830;12.082;2022-08-02T00:24:55;1.05;;;1.05;;
11171;SDS011;5642;50.830;12.082;2022-08-02T00:27:21;1.23;;;1.08;;
11171;SDS011;5642;50.830;12.082;2022-08-02T00:29:47;0.98;;;0.98;;
11171;SDS011;5642;50.830;12.082;2022-08-02T00:32:15;0.90;;;0.90;;
11171;SDS011;5642;50.830;12.082;2022-08-02T00:34:43;1.10;;;1.10;;
11171;SDS011;5642;50.830;12.082;2022-08-02T00:37:09;0.90;;;0.90;;
11171;SDS011;5642;50.830;12.082;2022-08-02T00:39:35;0.98;;;0.90;;
11171;SDS011;5642;50.830;12.082;2022-08-02T00:42:02;0.90;;;0.90;;
11171;SDS011;5642;50.830;12.082;2022-08-02T00:44:28;0.90;;;0.90;;
11171;SDS011;5642;50.830;12.082;2022-08-02T00:46:54;0.90;;;0.90;;
11171;SDS011;5642;50.830;12.082;2022-08-02T00:49:20;1.67;;;0.90;;
11171;SDS011;5642;50.830;12.082;2022-08-02T00:51:47;1.00;;;1.00;;
11171;SDS011;5642;50.830;12.082;2022-08-02T00:54:13;0.98;;;0.98;;
11171;SDS011;5642;50.830;12.082;2022-08-02T00:56:39;1.75;;;0.82;;
11171;SDS011;5642;50.830;12.082;2022-08-02T00:59:05;0.90;;;0.90;;
11171;SDS011;5642;50.830;12.082;2022-08-02T01:01:31;1.10;;;0.90;;
11171;SDS011;5642;50.830;12.082;2022-08-02T01:04:07;0.90;;;0.90;;
11171;SDS011;5642;50.830;12.082;2022-08-02T01:06:36;0.93;;;0.93;;
11171;SDS011;5642;50.830;12.082;2022-08-02T01:09:04;0.90;;;0.90;;
11171;SDS011;5642;50.830;12.082;2022-08-02T01:11:30;0.88;;;0.80;;
11171;SDS011;5642;50.830;12.082;2022-08-02T01:14:02;1.00;;;1.00;;
11171;SDS011;5642;50.830;12.082;2022-08-02T01:16:32;0.90;;;0.90;;
11171;SDS011;5642;50.830;12.082;2022-08-02T01:19:26;1.48;;;1.00;;
11171;SDS011;5642;50.830;12.082;2022-08-02T01:22:37;0.77;;;0.77;;
11171;SDS011;5642;50.830;12.082;2022-08-02T01:28:34;0.98;;;0.98;;
11171;SDS011;5642;50.830;12.082;2022-08-02T01:31:17;1.20;;;1.10;;
11171;SDS011;5642;50.830;12.082;2022-08-02T01:34:01;0.95;;;0.95;;
11171;SDS011;5642;50.830;12.082;2022-08-02T01:36:30;1.10;;;1.10;;
11171;SDS011;5642;50.830;12.082;2022-08-02T01:39:05;0.80;;;0.80;;
11171;SDS011;5642;50.830;12.082;2022-08-02T01:41:39;1.10;;;1.00;;
11171;SDS011;5642;50.830;12.082;2022-08-02T01:44:07;1.02;;;1.02;;
11171;SDS011;5642;50.830;12.082;2022-08-02T01:46:38;1.45;;;1.10;;
11171;SDS011;5642;50.830;12.082;2022-08-02T01:49:16;0.80;;;0.80;;
11171;SDS011;5642;50.830;12.082;2022-08-02T01:51:46;1.00;;;1.00;;
11171;SDS011;5642;50.830;12.082;2022-08-02T01:54:34;1.13;;;0.88;;
11171;SDS011;5642;50.830;12.082;2022-08-02T01:57:03;0.88;;;0.88;;
11171;SDS011;5642;50.830;12.082;2022-08-02T01:59:31;0.90;;;0.90;;
11171;SDS011;5642;50.830;12.082;2022-08-02T02:01:58;0.80;;;0.80;;
11171;SDS011;5642;50.830;12.082;2022-08-02T02:04:27;1.00;;;1.00;;
11171;SDS011;5642;50.830;12.082;2022-08-02T02:06:55;1.10;;;1.10;;
11171;SDS011;5642;50.830;12.082;2022-08-02T02:09:24;0.80;;;0.80;;
11171;SDS011;5642;50.830;12.082;2022-08-02T02:11:56;0.95;;;0.90;;
11171;SDS011;5642;50.830;12.082;2022-08-02T02:14:24;0.80;;;0.80;;
11171;SDS011;5642;50.830;12.082;2022-08-02T02:16:53;1.00;;;1.00;;
11171;SDS011;5642;50.830;12.082;2022-08-02T02:19:21;1.23;;;1.10;;
11171;SDS011;5642;50.830;12.082;2022-08-02T02:21:49;1.00;;;1.00;;
11171;SDS011;5642;50.830;12.082;2022-08-02T02:24:16;0.90;;;0.90;;
11171;SDS011;5642;50.830;12.082;2022-08-02T02:26:42;1.00;;;1.00;;
11171;SDS011;5642;50.830;12.082;2022-08-02T02:29:12;0.95;;;0.95;;
11171;SDS011;5642;50.830;12.082;2022-08-02T02:31:41;0.90;;;0.90;;
11171;SDS011;5642;50.830;12.082;2022-08-02T02:34:17;0.90;;;0.90;;
11171;SDS011;5642;50.830;12.082;2022-08-02T02:36:51;1.58;;;0.90;;
11171;SDS011;5642;50.830;12.082;2022-08-02T02:39:21;0.90;;;0.90;;
11171;SDS011;5642;50.830;12.082;2022-08-02T02:41:50;0.80;;;0.80;;
11171;SDS011;5642;50.830;12.082;2022-08-02T02:44:25;0.95;;;0.95;;
11171;SDS011;5642;50.830;12.082;2022-08-02T02:46:54;2.67;;;0.98;;
11171;SDS011;5642;50.830;12.082;2022-08-02T02:49:20;1.00;;;1.00;;
11171;SDS011;5642;50.830;12.082;2022-08-02T02:51:49;1.17;;;1.08;;
11171;SDS011;5642;50.830;12.082;2022-08-02T02:54:16;1.00;;;1.00;;
11171;SDS011;5642;50.830;12.082;2022-08-02T02:56:44;1.00;;;0.90;;
11171;SDS011;5642;50.830;12.082;2022-08-02T02:59:11;1.00;;;1.00;;
11171;SDS011;5642;50.830;12.082;2022-08-02T03:01:39;0.85;;;0.85;;
11171;SDS011;5642;50.830;12.082;2022-08-02T03:04:07;1.33;;;1.17;;
11171;SDS011;5642;50.830;12.082;2022-08-02T03:06:35;1.00;;;1.00;;
11171;SDS011;5642;50.830;12.082;2022-08-02T03:09:03;1.70;;;1.00;;
11171;SDS011;5642;50.830;12.082;2022-08-02T03:11:30;0.77;;;0.77;;
11171;SDS011;5642;50.830;12.082;2022-08-02T03:14:00;0.88;;;0.88;;
11171;SDS011;5642;50.830;12.082;2022-08-02T03:16:27;1.00;;;1.00;;
11171;SDS011;5642;50.830;12.082;2022-08-02T03:18:55;1.50;;;0.90;;
11171;SDS011;5642;50.830;12.082;2022-08-02T03:21:22;0.90;;;0.90;;
11171;SDS011;5642;50.830;12.082;2022-08-02T03:23:49;3.70;;;1.25;;
11171;SDS011;5642;50.830;12.082;2022-08-02T03:26:15;1.10;;;1.10;;
11171;SDS011;5642;50.830;12.082;2022-08-02T03:28:42;1.00;;;1.00;;
11171;SDS011;5642;50.830;12.082;2022-08-02T03:31:09;0.88;;;0.88;;
11171;SDS011;5642;50.830;12.082;2022-08-02T03:33:41;1.70;;;1.00;;
11171;SDS011;5642;50.830;12.082;2022-08-02T03:36:09;1.08;;;1.08;;
11171;SDS011;5642;50.830;12.082;2022-08-02T03:38:37;0.90;;;0.90;;
11171;SDS011;5642;50.830;12.082;2022-08-02T03:41:04;0.90;;;0.90;;
11171;SDS011;5642;50.830;12.082;2022-08-02T03:43:32;1.10;;;1.00;;
11171;SDS011;5642;50.830;12.082;2022-08-02T03:45:58;0.80;;;0.80;;
11171;SDS011;5642;50.830;12.082;2022-08-02T03:48:26;2.92;;;0.90;;
11171;SDS011;5642;50.830;12.082;2022-08-02T03:50:57;1.73;;;0.90;;
11171;SDS011;5642;50.830;12.082;2022-08-02T03:53:27;0.90;;;0.90;;
11171;SDS011;5642;50.830;12.082;2022-08-02T03:55:57;0.93;;;0.90;;
11171;SDS011;5642;50.830;12.082;2022-08-02T03:58:25;0.80;;;0.80;;
11171;SDS011;5642;50.830;12.082;2022-08-02T04:00:55;2.22;;;1.00;;
11171;SDS011;5642;50.830;12.082;2022-08-02T04:03:22;1.20;;;0.98;;
11171;SDS011;5642;50.830;12.082;2022-08-02T04:05:49;1.00;;;1.00;;
11171;SDS011;5642;50.830;12.082;2022-08-02T04:08:16;0.90;;;0.90;;
11171;SDS011;5642;50.830;12.082;2022-08-02T04:10:42;0.90;;;0.90;;
11171;SDS011;5642;50.830;12.082;2022-08-02T04:13:33;1.08;;;1.08;;
11171;SDS011;5642;50.830;12.082;2022-08-02T04:16:23;1.00;;;1.00;;
11171;SDS011;5642;50.830;12.082;2022-08-02T04:18:55;1.88;;;0.90;;
11171;SDS011;5642;50.830;12.082;2022-08-02T04:21:26;0.90;;;0.90;;
11171;SDS011;5642;50.830;12.082;2022-08-02T04:23:56;1.00;;;1.00;;
11171;SDS011;5642;50.830;12.082;2022-08-02T04:26:23;1.20;;;1.10;;
11171;SDS011;5642;50.830;12.082;2022-08-02T04:28:50;0.90;;;0.90;;
11171;SDS011;5642;50.830;12.082;2022-08-02T04:31:16;1.23;;;0.95;;
11171;SDS011;5642;50.830;12.082;2022-08-02T04:33:44;1.20;;;1.10;;
11171;SDS011;5642;50.830;12.082;2022-08-02T04:36:11;1.27;;;0.82;;
11171;SDS011;5642;50.830;12.082;2022-08-02T04:38:40;0.90;;;0.90;;
11171;SDS011;5642;50.830;12.082;2022-08-02T04:41:09;0.90;;;0.90;;
11171;SDS011;5642;50.830;12.082;2022-08-02T04:43:35;1.20;;;1.10;;
11171;SDS011;5642;50.830;12.082;2022-08-02T04:46:04;1.00;;;1.00;;
11171;SDS011;5642;50.830;12.082;2022-08-02T04:48:30;1.00;;;1.00;;
11171;SDS011;5642;50.830;12.082;2022-08-02T04:50:56;0.90;;;0.90;;
11171;SDS011;5642;50.830;12.082;2022-08-02T04:53:23;1.55;;;0.98;;
11171;SDS011;5642;50.830;12.082;2022-08-02T04:55:49;1.40;;;1.30;;
11171;SDS011;5642;50.830;12.082;2022-08-02T04:58:15;2.08;;;1.00;;
11171;SDS011;5642;50.830;12.082;2022-08-02T05:00:42;1.00;;;1.00;;
11171;SDS011;5642;50.830;12.082;2022-08-02T05:03:08;0.90;;;0.90;;
11171;SDS011;5642;50.830;12.082;2022-08-02T05:05:34;2.95;;;1.20;;
11171;SDS011;5642;50.830;12.082;2022-08-02T05:08:01;1.17;;;1.17;;
11171;SDS011;5642;50.830;12.082;2022-08-02T05:10:27;1.00;;;1.00;;
11171;SDS011;5642;50.830;12.082;2022-08-02T05:12:54;2.30;;;1.10;;
11171;SDS011;5642;50.830;12.082;2022-08-02T05:15:20;2.25;;;1.05;;
11171;SDS011;5642;50.830;12.082;2022-08-02T05:17:46;1.13;;;0.90;;
11171;SDS011;5642;50.830;12.082;2022-08-02T05:20:14;1.25;;;1.02;;
11171;SDS011;5642;50.830;12.082;2022-08-02T05:22:41;0.85;;;0.85;;
11171;SDS011;5642;50.830;12.082;2022-08-02T05:25:07;0.80;;;0.80;;
11171;SDS011;5642;50.830;12.082;2022-08-02T05:27:34;0.90;;;0.90;;
11171;SDS011;5642;50.830;12.082;2022-08-02T05:30:00;1.00;;;0.95;;
11171;SDS011;5642;50.830;12.082;2022-08-02T05:32:27;1.48;;;1.15;;
11171;SDS011;5642;50.830;12.082;2022-08-02T05:34:53;1.13;;;0.90;;
11171;SDS011;5642;50.830;12.082;2022-08-02T05:37:19;0.98;;;0.98;;
11171;SDS011;5642;50.830;12.082;2022-08-02T05:39:47;1.38;;;0.90;;
11171;SDS011;5642;50.830;12.082;2022-08-02T05:42:13;1.05;;;1.00;;
11171;SDS011;5642;50.830;12.082;2022-08-02T05:44:39;0.95;;;0.95;;
11171;SDS011;5642;50.830;12.082;2022-08-02T05:47:06;0.90;;;0.90;;
11171;SDS011;5642;50.830;12.082;2022-08-02T05:49:32;1.00;;;1.00;;
11171;SDS011;5642;50.830;12.082;2022-08-02T05:52:02;0.75;;;0.75;;
11171;SDS011;5642;50.830;12.082;2022-08-02T06:00:46;1.05;;;0.98;;
11171;SDS011;5642;50.830;12.082;2022-08-02T06:03:24;1.05;;;0.90;;
11171;SDS011;5642;50.830;12.082;2022-08-02T06:05:58;1.45;;;0.85;;
11171;SDS011;5642;50.830;12.082;2022-08-02T06:08:32;0.88;;;0.80;;
11171;SDS011;5642;50.830;12.082;2022-08-02T06:11:04;0.77;;;0.77;;
11171;SDS011;5642;50.830;12.082;2022-08-02T06:13:38;0.90;;;0.90;;
11171;SDS011;5642;50.830;12.082;2022-08-02T06:16:06;0.98;;;0.80;;
11171;SDS011;5642;50.830;12.082;2022-08-02T06:18:34;1.20;;;0.90;;
11171;SDS011;5642;50.830;12.082;2022-08-02T06:21:01;1.00;;;0.90;;
11171;SDS011;5642;50.830;12.082;2022-08-02T06:23:30;1.30;;;1.00;;
11171;SDS011;5642;50.830;12.082;2022-08-02T06:25:57;0.80;;;0.80;;
11171;SDS011;5642;50.830;12.082;2022-08-02T06:28:24;1.75;;;1.02;;
11171;SDS011;5642;50.830;12.082;2022-08-02T06:30:55;1.02;;;1.02;;
11171;SDS011;5642;50.830;12.082;2022-08-02T06:33:22;0.90;;;0.90;;
11171;SDS011;5642;50.830;12.082;2022-08-02T06:35:54;1.20;;;0.85;;
11171;SDS011;5642;50.830;12.082;2022-08-02T06:38:48;1.48;;;1.05;;
11171;SDS011;5642;50.830;12.082;2022-08-02T06:41:26;0.88;;;0.88;;
11171;SDS011;5642;50.830;12.082;2022-08-02T06:44:07;0.85;;;0.85;;
11171;SDS011;5642;50.830;12.082;2022-08-02T06:46:34;0.80;;;0.80;;
11171;SDS011;5642;50.830;12.082;2022-08-02T06:49:00;1.05;;;0.95;;
11171;SDS011;5642;50.830;12.082;2022-08-02T06:51:33;1.10;;;0.90;;
11171;SDS011;5642;50.830;12.082;2022-08-02T06:54:03;1.30;;;1.05;;
11171;SDS011;5642;50.830;12.082;2022-08-02T06:56:29;1.20;;;1.05;;
11171;SDS011;5642;50.830;12.082;2022-08-02T06:58:56;0.90;;;0.90;;
11171;SDS011;5642;50.830;12.082;2022-08-02T07:01:22;0.70;;;0.70;;
11171;SDS011;5642;50.830;12.082;2022-08-02T07:03:50;0.80;;;0.80;;
11171;SDS011;5642;50.830;12.082;2022-08-02T07:06:18;0.95;;;0.80;;
11171;SDS011;5642;50.830;12.082;2022-08-02T07:08:49;0.73;;;0.73;;
11171;SDS011;5642;50.830;12.082;2022-08-02T07:11:25;0.82;;;0.80;;
11171;SDS011;5642;50.830;12.082;2022-08-02T07:13:51;0.75;;;0.75;;
11171;SDS011;5642;50.830;12.082;2022-08-02T07:16:19;1.10;;;1.00;;
11171;SDS011;5642;50.830;12.082;2022-08-02T07:18:46;0.88;;;0.88;;
11171;SDS011;5642;50.830;12.082;2022-08-02T07:21:12;0.95;;;0.75;;
11171;SDS011;5642;50.830;12.082;2022-08-02T07:23:38;1.50;;;0.60;;
11171;SDS011;5642;50.830;12.082;2022-08-02T07:26:05;0.77;;;0.77;;
11171;SDS011;5642;50.830;12.082;2022-08-02T07:28:34;0.75;;;0.60;;
11171;SDS011;5642;50.830;12.082;2022-08-02T07:31:21;0.70;;;0.70;;
11171;SDS011;5642;50.830;12.082;2022-08-02T07:33:50;0.98;;;0.98;;
11171;SDS011;5642;50.830;12.082;2022-08-02T07:36:17;0.60;;;0.60;;
11171;SDS011;5642;50.830;12.082;2022-08-02T07:38:44;0.77;;;0.77;;
11171;SDS011;5642;50.830;12.082;2022-08-02T07:41:22;1.73;;;1.00;;
11171;SDS011;5642;50.830;12.082;2022-08-02T07:43:48;1.33;;;0.80;;
11171;SDS011;5642;50.830;12.082;2022-08-02T07:46:17;0.80;;;0.80;;
11171;SDS011;5642;50.830;12.082;2022-08-02T07:48:44;1.20;;;0.98;;
11171;SDS011;5642;50.830;12.082;2022-08-02T07:51:20;0.65;;;0.65;;
11171;SDS011;5642;50.830;12.082;2022-08-02T07:53:46;0.80;;;0.73;;
11171;SDS011;5642;50.830;12.082;2022-08-02T07:56:12;0.70;;;0.70;;
11171;SDS011;5642;50.830;12.082;2022-08-02T07:58:43;0.88;;;0.70;;
11171;SDS011;5642;50.830;12.082;2022-08-02T08:01:35;0.68;;;0.68;;
11171;SDS011;5642;50.830;12.082;2022-08-02T08:04:11;1.05;;;0.70;;
11171;SDS011;5642;50.830;12.082;2022-08-02T08:06:41;0.80;;;0.73;;
11171;SDS011;5642;50.830;12.082;2022-08-02T08:09:21;0.90;;;0.60;;
11171;SDS011;5642;50.830;12.082;2022-08-02T08:11:50;0.77;;;0.77;;
11171;SDS011;5642;50.830;12.082;2022-08-02T08:14:23;0.60;;;0.60;;
11171;SDS011;5642;50.830;12.082;2022-08-02T08:16:50;0.73;;;0.73;;
11171;SDS011;5642;50.830;12.082;2022-08-02T08:19:17;0.45;;;0.45;;
11171;SDS011;5642;50.830;12.082;2022-08-02T08:21:49;0.60;;;0.60;;
11171;SDS011;5642;50.830;12.082;2022-08-02T08:24:15;2.53;;;0.50;;
11171;SDS011;5642;50.830;12.082;2022-08-02T08:26:41;1.63;;;0.73;;
11171;SDS011;5642;50.830;12.082;2022-08-02T08:29:07;0.55;;;0.55;;
11171;SDS011;5642;50.830;12.082;2022-08-02T08:31:33;0.80;;;0.68;;
11171;SDS011;5642;50.830;12.082;2022-08-02T08:34:00;0.63;;;0.63;;
11171;SDS011;5642;50.830;12.082;2022-08-02T08:36:29;0.70;;;0.70;;
11171;SDS011;5642;50.830;12.082;2022-08-02T08:39:05;0.60;;;0.60;;
11171;SDS011;5642;50.830;12.082;2022-08-02T08:41:33;0.73;;;0.73;;
11171;SDS011;5642;50.830;12.082;2022-08-02T08:44:00;1.45;;;0.80;;
11171;SDS011;5642;50.830;12.082;2022-08-02T08:46:36;1.10;;;1.00;;
11171;SDS011;5642;50.830;12.082;2022-08-02T08:49:07;0.68;;;0.68;;
11171;SDS011;5642;50.830;12.082;2022-08-02T08:51:37;0.73;;;0.73;;
11171;SDS011;5642;50.830;12.082;2022-08-02T08:54:11;0.77;;;0.77;;
11171;SDS011;5642;50.830;12.082;2022-08-02T08:59:20;0.60;;;0.60;;
11171;SDS011;5642;50.830;12.082;2022-08-02T09:01:47;1.08;;;0.93;;
11171;SDS011;5642;50.830;12.082;2022-08-02T09:04:15;0.82;;;0.82;;
11171;SDS011;5642;50.830;12.082;2022-08-02T09:06:41;0.88;;;0.88;;
11171;SDS011;5642;50.830;12.082;2022-08-02T09:09:07;0.90;;;0.90;;
11171;SDS011;5642;50.830;12.082;2022-08-02T09:11:33;1.05;;;1.05;;
11171;SDS011;5642;50.830;12.082;2022-08-02T09:14:00;1.10;;;1.10;;
11171;SDS011;5642;50.830;12.082;2022-08-02T09:16:40;1.10;;;1.10;;
11171;SDS011;5642;50.830;12.082;2022-08-02T09:19:25;0.93;;;0.93;;
11171;SDS011;5642;50.830;12.082;2022-08-02T09:21:59;0.88;;;0.88;;
11171;SDS011;5642;50.830;12.082;2022-08-02T09:24:31;1.05;;;1.05;;
11171;SDS011;5642;50.830;12.082;2022-08-02T09:27:11;1.00;;;1.00;;
11171;SDS011;5642;50.830;12.082;2022-08-02T09:29:39;1.05;;;0.95;;
11171;SDS011;5642;50.830;12.082;2022-08-02T09:32:09;1.33;;;1.23;;
11171;SDS011;5642;50.830;12.082;2022-08-02T09:34:42;1.20;;;1.20;;
11171;SDS011;5642;50.830;12.082;2022-08-02T09:37:22;1.20;;;1.20;;
11171;SDS011;5642;50.830;12.082;2022-08-02T09:39:51;1.20;;;1.20;;
11171;SDS011;5642;50.830;12.082;2022-08-02T09:42:18;1.30;;;1.20;;
11171;SDS011;5642;50.830;12.082;2022-08-02T09:44:57;1.10;;;1.10;;
11171;SDS011;5642;50.830;12.082;2022-08-02T09:47:26;1.00;;;1.00;;
11171;SDS011;5642;50.830;12.082;2022-08-02T09:49:53;1.17;;;1.17;;
11171;SDS011;5642;50.830;12.082;2022-08-02T09:52:30;2.45;;;1.40;;
11171;SDS011;5642;50.830;12.082;2022-08-02T09:55:02;1.40;;;1.40;;
11171;SDS011;5642;50.830;12.082;2022-08-02T09:57:30;1.30;;;1.30;;
11171;SDS011;5642;50.830;12.082;2022-08-02T09:59:58;1.35;;;1.35;;
11171;SDS011;5642;50.830;12.082;2022-08-02T10:02:25;1.38;;;1.38;;
11171;SDS011;5642;50.830;12.082;2022-08-02T10:04:51;1.55;;;1.55;;
11171;SDS011;5642;50.830;12.082;2022-08-02T10:07:18;1.48;;;1.48;;
11171;SDS011;5642;50.830;12.082;2022-08-02T10:09:45;1.42;;;1.42;;
11171;SDS011;5642;50.830;12.082;2022-08-02T10:12:13;1.25;;;1.25;;
11171;SDS011;5642;50.830;12.082;2022-08-02T10:14:39;1.50;;;1.50;;
11171;SDS011;5642;50.830;12.082;2022-08-02T10:17:06;1.67;;;1.67;;
11171;SDS011;5642;50.830;12.082;2022-08-02T10:19:35;1.40;;;1.40;;
11171;SDS011;5642;50.830;12.082;2022-08-02T10:22:08;1.58;;;1.58;;
11171;SDS011;5642;50.830;12.082;2022-08-02T10:24:37;1.40;;;1.40;;
11171;SDS011;5642;50.830;12.082;2022-08-02T10:27:06;1.60;;;1.60;;
11171;SDS011;5642;50.830;12.082;2022-08-02T10:29:46;1.45;;;1.45;;
11171;SDS011;5642;50.830;12.082;2022-08-02T10:35:05;1.30;;;1.30;;
11171;SDS011;5642;50.830;12.082;2022-08-02T10:37:35;1.30;;;1.30;;
11171;SDS011;5642;50.830;12.082;2022-08-02T10:40:05;1.30;;;1.30;;
11171;SDS011;5642;50.830;12.082;2022-08-02T10:42:48;1.10;;;1.10;;
11171;SDS011;5642;50.830;12.082;2022-08-02T10:45:17;1.15;;;1.10;;
11171;SDS011;5642;50.830;12.082;2022-08-02T10:47:59;1.30;;;1.30;;
11171;SDS011;5642;50.830;12.082;2022-08-02T10:55:53;1.50;;;1.50;;
11171;SDS011;5642;50.830;12.082;2022-08-02T10:58:24;1.20;;;1.20;;
11171;SDS011;5642;50.830;12.082;2022-08-02T11:00:57;1.25;;;1.25;;
11171;SDS011;5642;50.830;12.082;2022-08-02T11:06:04;1.13;;;1.13;;
11171;SDS011;5642;50.830;12.082;2022-08-02T11:08:35;0.90;;;0.90;;
11171;SDS011;5642;50.830;12.082;2022-08-02T11:19:24;0.82;;;0.82;;
11171;SDS011;5642;50.830;12.082;2022-08-02T11:22:06;1.00;;;1.00;;
11171;SDS011;5642;50.830;12.082;2022-08-02T11:24:38;0.85;;;0.85;;
11171;SDS011;5642;50.830;12.082;2022-08-02T11:27:06;0.70;;;0.70;;
11171;SDS011;5642;50.830;12.082;2022-08-02T11:29:34;0.70;;;0.70;;
11171;SDS011;5642;50.830;12.082;2022-08-02T11:32:03;0.70;;;0.70;;
11171;SDS011;5642;50.830;12.082;2022-08-02T11:34:31;0.75;;;0.75;;
11171;SDS011;5642;50.830;12.082;2022-08-02T11:37:03;0.73;;;0.73;;
11171;SDS011;5642;50.830;12.082;2022-08-02T11:39:29;0.60;;;0.60;;
11171;SDS011;5642;50.830;12.082;2022-08-02T11:41:57;0.73;;;0.68;;
11171;SDS011;5642;50.830;12.082;2022-08-02T11:44:26;0.50;;;0.50;;
11171;SDS011;5642;50.830;12.082;2022-08-02T11:46:57;0.70;;;0.70;;
11171;SDS011;5642;50.830;12.082;2022-08-02T11:49:26;0.50;;;0.50;;
11171;SDS011;5642;50.830;12.082;2022-08-02T11:51:59;0.60;;;0.60;;
11171;SDS011;5642;50.830;12.082;2022-08-02T11:54:31;0.70;;;0.70;;
11171;SDS011;5642;50.830;12.082;2022-08-02T11:57:14;0.57;;;0.57;;
11171;SDS011;5642;50.830;12.082;2022-08-02T11:59:45;0.50;;;0.50;;
11171;SDS011;5642;50.830;12.082;2022-08-02T12:02:13;0.65;;;0.65;;
11171;SDS011;5642;50.830;12.082;2022-08-02T12:04:41;0.60;;;0.60;;
11171;SDS011;5642;50.830;12.082;2022-08-02T12:07:09;0.60;;;0.60;;
11171;SDS011;5642;50.830;12.082;2022-08-02T12:09:36;0.68;;;0.68;;
11171;SDS011;5642;50.830;12.082;2022-08-02T12:12:09;0.60;;;0.60;;
11171;SDS011;5642;50.830;12.082;2022-08-02T12:14:47;0.82;;;0.82;;
11171;SDS011;5642;50.830;12.082;2022-08-02T12:17:21;0.70;;;0.70;;
11171;SDS011;5642;50.830;12.082;2022-08-02T12:20:14;0.70;;;0.70;;
11171;SDS011;5642;50.830;12.082;2022-08-02T12:22:43;0.80;;;0.70;;
11171;SDS011;5642;50.830;12.082;2022-08-02T12:25:19;0.77;;;0.77;;
11171;SDS011;5642;50.830;12.082;2022-08-02T12:27:47;0.68;;;0.68;;
11171;SDS011;5642;50.830;12.082;2022-08-02T12:30:25;0.80;;;0.80;;
11171;SDS011;5642;50.830;12.082;2022-08-02T12:32:52;0.60;;;0.60;;
11171;SDS011;5642;50.830;12.082;2022-08-02T12:35:18;0.70;;;0.70;;
11171;SDS011;5642;50.830;12.082;2022-08-02T12:37:46;0.70;;;0.70;;
11171;SDS011;5642;50.830;12.082;2022-08-02T12:44:01;0.60;;;0.60;;
11171;SDS011;5642;50.830;12.082;2022-08-02T12:46:32;0.60;;;0.60;;
11171;SDS011;5642;50.830;12.082;2022-08-02T12:49:13;0.70;;;0.70;;
11171;SDS011;5642;50.830;12.082;2022-08-02T12:57:53;0.70;;;0.70;;
11171;SDS011;5642;50.830;12.082;2022-08-02T13:00:51;0.80;;;0.80;;
11171;SDS011;5642;50.830;12.082;2022-08-02T13:03:19;0.60;;;0.60;;
11171;SDS011;5642;50.830;12.082;2022-08-02T13:05:46;0.70;;;0.70;;
11171;SDS011;5642;50.830;12.082;2022-08-02T13:08:16;0.88;;;0.88;;
11171;SDS011;5642;50.830;12.082;2022-08-02T13:10:42;0.60;;;0.60;;
11171;SDS011;5642;50.830;12.082;2022-08-02T13:13:22;0.70;;;0.70;;
11171;SDS011;5642;50.830;12.082;2022-08-02T13:15:51;0.70;;;0.70;;
11171;SDS011;5642;50.830;12.082;2022-08-02T13:18:18;0.80;;;0.80;;
11171;SDS011;5642;50.830;12.082;2022-08-02T13:20:53;0.70;;;0.70;;
11171;SDS011;5642;50.830;12.082;2022-08-02T13:23:19;0.85;;;0.85;;
11171;SDS011;5642;50.830;12.082;2022-08-02T13:25:46;1.10;;;0.73;;
11171;SDS011;5642;50.830;12.082;2022-08-02T13:28:14;0.60;;;0.60;;
11171;SDS011;5642;50.830;12.082;2022-08-02T13:31:11;0.68;;;0.68;;
11171;SDS011;5642;50.830;12.082;2022-08-02T13:33:57;0.77;;;0.77;;
11171;SDS011;5642;50.830;12.082;2022-08-02T13:36:24;1.10;;;1.10;;
11171;SDS011;5642;50.830;12.082;2022-08-02T13:38:50;0.90;;;0.90;;
11171;SDS011;5642;50.830;12.082;2022-08-02T13:41:16;0.95;;;0.93;;
11171;SDS011;5642;50.830;12.082;2022-08-02T13:43:42;0.88;;;0.88;;
11171;SDS011;5642;50.830;12.082;2022-08-02T13:46:09;0.90;;;0.90;;
11171;SDS011;5642;50.830;12.082;2022-08-02T13:48:35;1.10;;;1.00;;
11171;SDS011;5642;50.830;12.082;2022-08-02T13:51:01;1.00;;;1.00;;
11171;SDS011;5642;50.830;12.082;2022-08-02T13:53:27;1.02;;;0.93;;
11171;SDS011;5642;50.830;12.082;2022-08-02T14:00:01;0.82;;;0.82;;
11171;SDS011;5642;50.830;12.082;2022-08-02T14:02:32;0.80;;;0.80;;
11171;SDS011;5642;50.830;12.082;2022-08-02T14:05:04;0.70;;;0.70;;
11171;SDS011;5642;50.830;12.082;2022-08-02T14:07:30;1.20;;;1.10;;
11171;SDS011;5642;50.830;12.082;2022-08-02T14:09:56;0.55;;;0.55;;
11171;SDS011;5642;50.830;12.082;2022-08-02T14:12:23;0.70;;;0.70;;
11171;SDS011;5642;50.830;12.082;2022-08-02T14:14:49;0.85;;;0.85;;
11171;SDS011;5642;50.830;12.082;2022-08-02T14:17:15;0.82;;;0.70;;
11171;SDS011;5642;50.830;12.082;2022-08-02T14:19:43;1.02;;;1.02;;
11171;SDS011;5642;50.830;12.082;2022-08-02T14:26:09;0.80;;;0.80;;
11171;SDS011;5642;50.830;12.082;2022-08-02T14:28:48;0.90;;;0.90;;
11171;SDS011;5642;50.830;12.082;2022-08-02T14:37:14;0.63;;;0.63;;
11171;SDS011;5642;50.830;12.082;2022-08-02T14:39:40;0.90;;;0.90;;
11171;SDS011;5642;50.830;12.082;2022-08-02T14:42:06;0.80;;;0.80;;
11171;SDS011;5642;50.830;12.082;2022-08-02T14:44:32;0.88;;;0.88;;
11171;SDS011;5642;50.830;12.082;2022-08-02T14:47:04;0.70;;;0.70;;
11171;SDS011;5642;50.830;12.082;2022-08-02T14:49:31;0.65;;;0.65;;
11171;SDS011;5642;50.830;12.082;2022-08-02T14:52:00;1.02;;;1.02;;
11171;SDS011;5642;50.830;12.082;2022-08-02T14:54:30;1.00;;;1.00;;
11171;SDS011;5642;50.830;12.082;2022-08-02T14:57:16;0.73;;;0.73;;
11171;SDS011;5642;50.830;12.082;2022-08-02T14:59:57;0.85;;;0.85;;
11171;SDS011;5642;50.830;12.082;2022-08-02T15:02:38;0.88;;;0.88;;
11171;SDS011;5642;50.830;12.082;2022-08-02T15:05:04;1.00;;;1.00;;
11171;SDS011;5642;50.830;12.082;2022-08-02T15:07:32;1.00;;;1.00;;
11171;SDS011;5642;50.830;12.082;2022-08-02T15:10:01;1.02;;;0.93;;
11171;SDS011;5642;50.830;12.082;2022-08-02T15:12:28;1.00;;;0.90;;
11171;SDS011;5642;50.830;12.082;2022-08-02T15:14:57;0.90;;;0.90;;
11171;SDS011;5642;50.830;12.082;2022-08-02T15:17:24;0.82;;;0.82;;
11171;SDS011;5642;50.830;12.082;2022-08-02T15:19:51;0.80;;;0.80;;
11171;SDS011;5642;50.830;12.082;2022-08-02T15:22:17;0.70;;;0.70;;
11171;SDS011;5642;50.830;12.082;2022-08-02T15:24:43;0.90;;;0.90;;
11171;SDS011;5642;50.830;12.082;2022-08-02T15:27:09;0.80;;;0.80;;
11171;SDS011;5642;50.830;12.082;2022-08-02T15:29:38;0.90;;;0.90;;
11171;SDS011;5642;50.830;12.082;2022-08-02T15:32:05;0.80;;;0.80;;
11171;SDS011;5642;50.830;12.082;2022-08-02T15:34:34;0.93;;;0.90;;
11171;SDS011;5642;50.830;12.082;2022-08-02T15:37:00;0.80;;;0.80;;
11171;SDS011;5642;50.830;12.082;2022-08-02T15:39:26;1.00;;;1.00;;
11171;SDS011;5642;50.830;12.082;2022-08-02T15:41:55;0.90;;;0.90;;
11171;SDS011;5642;50.830;12.082;2022-08-02T15:44:21;0.80;;;0.80;;
11171;SDS011;5642;50.830;12.082;2022-08-02T15:46:49;0.80;;;0.80;;
11171;SDS011;5642;50.830;12.082;2022-08-02T15:49:16;0.95;;;0.93;;
11171;SDS011;5642;50.830;12.082;2022-08-02T15:51:44;0.90;;;0.90;;
11171;SDS011;5642;50.830;12.082;2022-08-02T15:54:11;1.15;;;1.05;;
11171;SDS011;5642;50.830;12.082;2022-08-02T15:56:37;1.45;;;1.35;;
11171;SDS011;5642;50.830;12.082;2022-08-02T15:59:03;1.58;;;1.48;;